sensor_id;sensor_type;location;lat;lon;timestamp;pressure;altitude;pressure_sealevel;temperature;humidity
75051;BME280;63628;47.656;11.310;2023-10-08T00:01:20;95686.09;;;15.93;63.20
75051;BME280;63628;47.656;11.310;2023-10-08T00:03:49;95681.34;;;16.51;61.76
75051;BME280;63628;47.656;11.310;2023-10-08T00:06:17;95689.56;;;14.05;67.11
75051;BME280;63628;47.656;11.310;2023-10-08T00:08:46;95684.50;;;15.75;63.74
75051;BME280;63628;47.656;11.310;2023-10-08T00:11:13;95688.69;;;14.86;65.33
75051;BME280;63628;47.656;11.310;2023-10-08T00:13:43;95698.75;;;15.24;66.29
75051;BME280;63628;47.656;11.310;2023-10-08T00:16:11;95693.84;;;15.04;66.51
75051;BME280;63628;47.656;11.310;2023-10-08T00:18:44;95689.47;;;16.22;62.27
75051;BME280;63628;47.656;11.310;2023-10-08T00:21:20;95688.41;;;16.40;61.87
75051;BME280;63628;47.656;11.310;2023-10-08T00:23:52;95691.09;;;16.40;61.57
75051;BME280;63628;47.656;11.310;2023-10-08T00:26:21;95694.06;;;16.43;61.42
75051;BME280;63628;47.656;11.310;2023-10-08T00:28:58;95687.59;;;16.39;61.70
75051;BME280;63628;47.656;11.310;2023-10-08T00:31:33;95693.00;;;16.44;61.60
75051;BME280;63628;47.656;11.310;2023-10-08T00:34:08;95691.66;;;16.42;60.18
75051;BME280;63628;47.656;11.310;2023-10-08T00:36:40;95693.75;;;16.23;62.10
75051;BME280;63628;47.656;11.310;2023-10-08T00:39:08;95700.78;;;16.46;61.50
75051;BME280;63628;47.656;11.310;2023-10-08T00:41:41;95702.97;;;16.49;61.58
75051;BME280;63628;47.656;11.310;2023-10-08T00:44:10;95705.06;;;16.47;61.45
75051;BME280;63628;47.656;11.310;2023-10-08T00:46:42;95713.75;;;16.37;61.63
75051;BME280;63628;47.656;11.310;2023-10-08T00:49:19;95716.44;;;16.37;61.73
75051;BME280;63628;47.656;11.310;2023-10-08T00:52:09;95716.34;;;16.32;61.40
75051;BME280;63628;47.656;11.310;2023-10-08T00:54:36;95717.47;;;16.36;61.53
75051;BME280;63628;47.656;11.310;2023-10-08T00:57:20;95715.38;;;16.38;61.62
75051;BME280;63628;47.656;11.310;2023-10-08T00:59:48;95719.28;;;16.31;62.05
75051;BME280;63628;47.656;11.310;2023-10-08T01:02:25;95719.03;;;16.32;60.14
75051;BME280;63628;47.656;11.310;2023-10-08T01:05:05;95714.00;;;16.19;62.20
75051;BME280;63628;47.656;11.310;2023-10-08T01:07:36;95713.94;;;16.31;61.97
75051;BME280;63628;47.656;11.310;2023-10-08T01:10:04;95711.75;;;16.28;61.75
75051;BME280;63628;47.656;11.310;2023-10-08T01:12:36;95711.41;;;16.41;61.31
75051;BME280;63628;47.656;11.310;2023-10-08T01:15:11;95700.47;;;16.42;61.27
75051;BME280;63628;47.656;11.310;2023-10-08T01:17:49;95703.41;;;16.07;59.95
75051;BME280;63628;47.656;11.310;2023-10-08T01:20:27;95692.63;;;16.36;61.24
75051;BME280;63628;47.656;11.310;2023-10-08T01:23:03;95696.91;;;16.37;61.67
75051;BME280;63628;47.656;11.310;2023-10-08T01:25:31;95700.00;;;15.95;62.85
75051;BME280;63628;47.656;11.310;2023-10-08T01:27:57;95699.53;;;16.32;61.84
75051;BME280;63628;47.656;11.310;2023-10-08T01:30:43;95693.28;;;16.26;62.07
75051;BME280;63628;47.656;11.310;2023-10-08T01:33:13;95683.16;;;16.28;61.69
75051;BME280;63628;47.656;11.310;2023-10-08T01:35:42;95694.56;;;16.24;61.99
75051;BME280;63628;47.656;11.310;2023-10-08T01:38:10;95692.31;;;16.15;60.44
75051;BME280;63628;47.656;11.310;2023-10-08T01:40:41;95691.91;;;16.24;61.58
75051;BME280;63628;47.656;11.310;2023-10-08T01:43:07;95685.69;;;16.01;62.32
75051;BME280;63628;47.656;11.310;2023-10-08T01:45:36;95670.06;;;16.27;60.78
75051;BME280;63628;47.656;11.310;2023-10-08T01:48:03;95679.13;;;16.26;61.72
75051;BME280;63628;47.656;11.310;2023-10-08T01:50:30;95670.63;;;16.29;61.67
75051;BME280;63628;47.656;11.310;2023-10-08T01:53:01;95661.81;;;16.28;61.21
75051;BME280;63628;47.656;11.310;2023-10-08T01:55:29;95648.84;;;16.20;61.59
75051;BME280;63628;47.656;11.310;2023-10-08T01:58:00;95645.84;;;16.16;61.98
75051;BME280;63628;47.656;11.310;2023-10-08T02:00:26;95641.69;;;15.08;66.95
75051;BME280;63628;47.656;11.310;2023-10-08T02:02:53;95640.06;;;16.03;62.04
75051;BME280;63628;47.656;11.310;2023-10-08T02:05:26;95631.84;;;16.26;61.43
75051;BME280;63628;47.656;11.310;2023-10-08T02:07:53;95633.28;;;16.34;61.06
75051;BME280;63628;47.656;11.310;2023-10-08T02:10:21;95620.34;;;15.70;62.92
75051;BME280;63628;47.656;11.310;2023-10-08T02:12:50;95624.31;;;15.68;62.69
75051;BME280;63628;47.656;11.310;2023-10-08T02:15:17;95622.28;;;14.56;67.68
75051;BME280;63628;47.656;11.310;2023-10-08T02:17:43;95624.84;;;14.27;68.97
75051;BME280;63628;47.656;11.310;2023-10-08T02:20:11;95625.63;;;14.91;66.15
75051;BME280;63628;47.656;11.310;2023-10-08T02:22:39;95619.63;;;15.75;62.81
75051;BME280;63628;47.656;11.310;2023-10-08T02:25:07;95611.66;;;15.97;62.56
75051;BME280;63628;47.656;11.310;2023-10-08T02:27:35;95615.94;;;15.98;62.81
75051;BME280;63628;47.656;11.310;2023-10-08T02:30:06;95607.13;;;15.97;62.29
75051;BME280;63628;47.656;11.310;2023-10-08T02:32:35;95612.03;;;14.93;64.17
75051;BME280;63628;47.656;11.310;2023-10-08T02:35:04;95616.56;;;15.38;62.51
75051;BME280;63628;47.656;11.310;2023-10-08T02:37:30;95608.16;;;15.46;63.49
75051;BME280;63628;47.656;11.310;2023-10-08T02:39:57;95608.91;;;15.92;62.23
75051;BME280;63628;47.656;11.310;2023-10-08T02:42:24;95607.44;;;16.01;62.22
75051;BME280;63628;47.656;11.310;2023-10-08T02:44:51;95607.13;;;15.97;62.20
75051;BME280;63628;47.656;11.310;2023-10-08T02:47:19;95612.69;;;15.45;64.30
75051;BME280;63628;47.656;11.310;2023-10-08T02:49:49;95607.56;;;15.72;63.15
75051;BME280;63628;47.656;11.310;2023-10-08T02:52:15;95610.03;;;15.96;62.44
75051;BME280;63628;47.656;11.310;2023-10-08T02:54:42;95606.41;;;16.02;62.05
75051;BME280;63628;47.656;11.310;2023-10-08T02:57:09;95606.47;;;16.07;61.82
75051;BME280;63628;47.656;11.310;2023-10-08T02:59:41;95602.59;;;15.47;65.39
75051;BME280;63628;47.656;11.310;2023-10-08T03:02:09;95596.75;;;15.62;63.12
75051;BME280;63628;47.656;11.310;2023-10-08T03:04:48;95600.66;;;15.93;62.54
75051;BME280;63628;47.656;11.310;2023-10-08T03:07:17;95595.78;;;15.68;62.98
75051;BME280;63628;47.656;11.310;2023-10-08T03:09:49;95599.38;;;15.96;62.33
75051;BME280;63628;47.656;11.310;2023-10-08T03:12:17;95588.88;;;15.89;62.57
75051;BME280;63628;47.656;11.310;2023-10-08T03:14:44;95587.22;;;15.54;64.98
75051;BME280;63628;47.656;11.310;2023-10-08T03:17:27;95584.78;;;15.03;67.24
75051;BME280;63628;47.656;11.310;2023-10-08T03:19:56;95581.19;;;15.76;62.99
75051;BME280;63628;47.656;11.310;2023-10-08T03:22:43;95587.00;;;14.94;68.37
75051;BME280;63628;47.656;11.310;2023-10-08T03:25:12;95589.09;;;15.37;64.82
75051;BME280;63628;47.656;11.310;2023-10-08T03:27:47;95579.28;;;15.71;63.04
75051;BME280;63628;47.656;11.310;2023-10-08T03:30:15;95580.34;;;15.92;62.38
75051;BME280;63628;47.656;11.310;2023-10-08T03:32:42;95582.03;;;15.98;62.02
75051;BME280;63628;47.656;11.310;2023-10-08T03:35:12;95572.59;;;15.57;63.57
75051;BME280;63628;47.656;11.310;2023-10-08T03:37:39;95580.28;;;15.87;62.24
75051;BME280;63628;47.656;11.310;2023-10-08T03:40:12;95574.72;;;15.89;62.49
75051;BME280;63628;47.656;11.310;2023-10-08T03:42:58;95577.50;;;14.70;69.09
75051;BME280;63628;47.656;11.310;2023-10-08T03:45:24;95574.66;;;15.67;63.31
75051;BME280;63628;47.656;11.310;2023-10-08T03:48:10;95566.38;;;15.85;62.72
75051;BME280;63628;47.656;11.310;2023-10-08T03:50:43;95571.66;;;15.80;62.71
75051;BME280;63628;47.656;11.310;2023-10-08T03:53:10;95561.34;;;15.89;62.43
75051;BME280;63628;47.656;11.310;2023-10-08T03:55:40;95568.38;;;15.95;62.46
75051;BME280;63628;47.656;11.310;2023-10-08T03:58:08;95566.63;;;14.19;72.38
75051;BME280;63628;47.656;11.310;2023-10-08T04:00:46;95567.25;;;13.98;70.96
75051;BME280;63628;47.656;11.310;2023-10-08T04:03:12;95566.03;;;14.29;72.34
75051;BME280;63628;47.656;11.310;2023-10-08T04:05:39;95567.81;;;14.00;74.10
75051;BME280;63628;47.656;11.310;2023-10-08T04:08:26;95560.88;;;15.41;64.57
75051;BME280;63628;47.656;11.310;2023-10-08T04:11:09;95561.56;;;15.65;63.29
75051;BME280;63628;47.656;11.310;2023-10-08T04:13:56;95552.66;;;15.76;63.04
75051;BME280;63628;47.656;11.310;2023-10-08T04:16:26;95558.88;;;15.82;62.93
75051;BME280;63628;47.656;11.310;2023-10-08T04:18:54;95552.97;;;15.80;62.53
75051;BME280;63628;47.656;11.310;2023-10-08T04:21:22;95557.88;;;15.88;62.33
75051;BME280;63628;47.656;11.310;2023-10-08T04:23:50;95550.63;;;15.83;62.37
75051;BME280;63628;47.656;11.310;2023-10-08T04:26:18;95546.09;;;15.84;62.61
75051;BME280;63628;47.656;11.310;2023-10-08T04:28:51;95547.06;;;15.78;62.85
75051;BME280;63628;47.656;11.310;2023-10-08T04:31:21;95545.44;;;15.77;62.94
75051;BME280;63628;47.656;11.310;2023-10-08T04:33:51;95538.50;;;15.59;63.31
75051;BME280;63628;47.656;11.310;2023-10-08T04:36:19;95538.50;;;15.76;62.96
75051;BME280;63628;47.656;11.310;2023-10-08T04:38:46;95539.06;;;15.78;62.51
75051;BME280;63628;47.656;11.310;2023-10-08T04:41:22;95535.75;;;15.37;64.50
75051;BME280;63628;47.656;11.310;2023-10-08T04:43:54;95537.75;;;15.47;64.15
75051;BME280;63628;47.656;11.310;2023-10-08T04:46:22;95526.38;;;14.56;71.10
75051;BME280;63628;47.656;11.310;2023-10-08T04:49:14;95527.09;;;14.97;68.98
75051;BME280;63628;47.656;11.310;2023-10-08T04:51:55;95528.69;;;15.48;64.23
75051;BME280;63628;47.656;11.310;2023-10-08T04:54:24;95522.59;;;14.97;67.61
75051;BME280;63628;47.656;11.310;2023-10-08T04:56:52;95522.16;;;15.55;63.97
75051;BME280;63628;47.656;11.310;2023-10-08T04:59:19;95522.41;;;15.71;63.37
75051;BME280;63628;47.656;11.310;2023-10-08T05:01:49;95519.50;;;15.39;68.46
75051;BME280;63628;47.656;11.310;2023-10-08T05:04:36;95517.53;;;14.84;70.32
75051;BME280;63628;47.656;11.310;2023-10-08T05:07:18;95519.91;;;15.14;66.03
75051;BME280;63628;47.656;11.310;2023-10-08T05:09:48;95516.25;;;15.53;64.95
75051;BME280;63628;47.656;11.310;2023-10-08T05:12:31;95515.72;;;15.68;63.07
75051;BME280;63628;47.656;11.310;2023-10-08T05:15:05;95519.03;;;15.08;69.56
75051;BME280;63628;47.656;11.310;2023-10-08T05:17:41;95522.66;;;15.36;65.08
75051;BME280;63628;47.656;11.310;2023-10-08T05:20:18;95517.84;;;15.54;63.89
75051;BME280;63628;47.656;11.310;2023-10-08T05:23:06;95520.97;;;15.63;63.13
75051;BME280;63628;47.656;11.310;2023-10-08T05:25:47;95517.53;;;15.51;63.72
75051;BME280;63628;47.656;11.310;2023-10-08T05:28:33;95515.63;;;15.63;63.44
75051;BME280;63628;47.656;11.310;2023-10-08T05:31:14;95522.31;;;15.49;66.08
75051;BME280;63628;47.656;11.310;2023-10-08T05:33:41;95526.88;;;15.65;62.88
75051;BME280;63628;47.656;11.310;2023-10-08T05:36:26;95517.00;;;15.66;63.27
75051;BME280;63628;47.656;11.310;2023-10-08T05:39:11;95517.66;;;15.22;68.06
75051;BME280;63628;47.656;11.310;2023-10-08T05:42:01;95527.56;;;15.44;64.66
75051;BME280;63628;47.656;11.310;2023-10-08T05:44:47;95519.19;;;15.35;66.03
75051;BME280;63628;47.656;11.310;2023-10-08T05:47:32;95524.72;;;14.83;71.04
75051;BME280;63628;47.656;11.310;2023-10-08T05:50:00;95530.56;;;15.47;64.64
75051;BME280;63628;47.656;11.310;2023-10-08T05:52:56;95532.41;;;15.47;64.77
75051;BME280;63628;47.656;11.310;2023-10-08T05:55:23;95533.41;;;15.41;64.27
75051;BME280;63628;47.656;11.310;2023-10-08T05:57:53;95526.91;;;15.53;63.56
75051;BME280;63628;47.656;11.310;2023-10-08T06:00:41;95533.91;;;15.21;65.45
75051;BME280;63628;47.656;11.310;2023-10-08T06:03:18;95533.34;;;15.19;66.72
75051;BME280;63628;47.656;11.310;2023-10-08T06:06:05;95537.38;;;14.59;72.57
75051;BME280;63628;47.656;11.310;2023-10-08T06:08:38;95544.41;;;15.11;66.80
75051;BME280;63628;47.656;11.310;2023-10-08T06:11:16;95543.66;;;15.32;69.39
75051;BME280;63628;47.656;11.310;2023-10-08T06:14:04;95549.50;;;15.12;66.97
75051;BME280;63628;47.656;11.310;2023-10-08T06:16:42;95549.72;;;15.44;67.63
75051;BME280;63628;47.656;11.310;2023-10-08T06:19:11;95557.00;;;15.49;64.40
75051;BME280;63628;47.656;11.310;2023-10-08T06:21:39;95559.34;;;15.45;64.69
75051;BME280;63628;47.656;11.310;2023-10-08T06:24:07;95564.59;;;15.57;64.35
75051;BME280;63628;47.656;11.310;2023-10-08T06:26:37;95576.25;;;15.17;70.57
75051;BME280;63628;47.656;11.310;2023-10-08T06:29:15;95578.97;;;15.06;73.74
75051;BME280;63628;47.656;11.310;2023-10-08T06:31:47;95586.69;;;14.90;70.24
75051;BME280;63628;47.656;11.310;2023-10-08T06:34:18;95598.53;;;15.11;73.66
75051;BME280;63628;47.656;11.310;2023-10-08T06:36:48;95605.19;;;15.42;65.54
75051;BME280;63628;47.656;11.310;2023-10-08T06:39:15;95602.78;;;15.58;64.54
75051;BME280;63628;47.656;11.310;2023-10-08T06:41:45;95611.25;;;15.54;64.34
75051;BME280;63628;47.656;11.310;2023-10-08T06:44:14;95618.78;;;15.58;63.93
75051;BME280;63628;47.656;11.310;2023-10-08T06:46:42;95626.66;;;15.64;64.15
75051;BME280;63628;47.656;11.310;2023-10-08T06:49:10;95640.34;;;15.68;65.15
75051;BME280;63628;47.656;11.310;2023-10-08T06:51:39;95648.16;;;15.58;63.92
75051;BME280;63628;47.656;11.310;2023-10-08T06:54:08;95650.22;;;15.55;65.66
75051;BME280;63628;47.656;11.310;2023-10-08T06:56:37;95666.53;;;15.42;70.03
75051;BME280;63628;47.656;11.310;2023-10-08T06:59:04;95679.16;;;15.47;64.53
75051;BME280;63628;47.656;11.310;2023-10-08T07:01:31;95690.72;;;15.52;64.46
75051;BME280;63628;47.656;11.310;2023-10-08T07:04:14;95698.84;;;15.58;64.38
75051;BME280;63628;47.656;11.310;2023-10-08T07:06:42;95705.19;;;15.57;64.39
75051;BME280;63628;47.656;11.310;2023-10-08T07:09:10;95705.13;;;15.51;64.90
75051;BME280;63628;47.656;11.310;2023-10-08T07:11:56;95696.19;;;15.58;64.68
75051;BME280;63628;47.656;11.310;2023-10-08T07:14:24;95702.53;;;15.57;64.80
75051;BME280;63628;47.656;11.310;2023-10-08T07:16:54;95702.19;;;15.53;65.02
75051;BME280;63628;47.656;11.310;2023-10-08T07:19:22;95706.25;;;15.55;65.15
75051;BME280;63628;47.656;11.310;2023-10-08T07:21:59;95698.72;;;15.81;66.39
75051;BME280;63628;47.656;11.310;2023-10-08T07:24:30;95704.06;;;15.64;65.41
75051;BME280;63628;47.656;11.310;2023-10-08T07:26:57;95707.78;;;15.63;65.79
75051;BME280;63628;47.656;11.310;2023-10-08T07:29:24;95700.09;;;15.67;65.35
75051;BME280;63628;47.656;11.310;2023-10-08T07:31:51;95705.44;;;15.67;64.91
75051;BME280;63628;47.656;11.310;2023-10-08T07:34:19;95695.97;;;15.76;64.69
75051;BME280;63628;47.656;11.310;2023-10-08T07:36:54;95697.59;;;15.77;64.48
75051;BME280;63628;47.656;11.310;2023-10-08T07:39:22;95703.16;;;16.64;66.59
75051;BME280;63628;47.656;11.310;2023-10-08T07:42:09;95708.13;;;17.16;63.21
75051;BME280;63628;47.656;11.310;2023-10-08T07:44:36;95707.47;;;16.65;63.93
75051;BME280;63628;47.656;11.310;2023-10-08T07:47:06;95710.22;;;16.70;63.12
75051;BME280;63628;47.656;11.310;2023-10-08T07:49:41;95715.63;;;16.03;65.28
75051;BME280;63628;47.656;11.310;2023-10-08T07:52:12;95709.81;;;17.00;72.31
75051;BME280;63628;47.656;11.310;2023-10-08T07:54:43;95711.00;;;17.09;72.19
75051;BME280;63628;47.656;11.310;2023-10-08T07:57:10;95718.00;;;16.55;65.82
75051;BME280;63628;47.656;11.310;2023-10-08T07:59:39;95723.97;;;16.07;68.76
75051;BME280;63628;47.656;11.310;2023-10-08T08:02:22;95719.03;;;15.99;70.06
75051;BME280;63628;47.656;11.310;2023-10-08T08:04:51;95728.41;;;16.01;70.03
75051;BME280;63628;47.656;11.310;2023-10-08T08:07:21;95726.16;;;16.10;68.83
75051;BME280;63628;47.656;11.310;2023-10-08T08:09:49;95716.84;;;16.29;68.56
75051;BME280;63628;47.656;11.310;2023-10-08T08:12:27;95727.75;;;16.11;67.92
75051;BME280;63628;47.656;11.310;2023-10-08T08:14:59;95723.53;;;16.48;67.88
75051;BME280;63628;47.656;11.310;2023-10-08T08:17:30;95713.84;;;17.73;70.92
75051;BME280;63628;47.656;11.310;2023-10-08T08:19:57;95710.69;;;17.82;67.37
75051;BME280;63628;47.656;11.310;2023-10-08T08:22:25;95719.00;;;17.09;68.29
75051;BME280;63628;47.656;11.310;2023-10-08T08:24:58;95714.16;;;16.85;66.35
75051;BME280;63628;47.656;11.310;2023-10-08T08:27:42;95711.13;;;16.59;68.09
75051;BME280;63628;47.656;11.310;2023-10-08T08:30:15;95700.22;;;16.83;68.83
75051;BME280;63628;47.656;11.310;2023-10-08T08:32:44;95706.66;;;16.26;69.84
75051;BME280;63628;47.656;11.310;2023-10-08T08:35:18;95708.09;;;16.34;70.04
75051;BME280;63628;47.656;11.310;2023-10-08T08:37:47;95702.72;;;17.38;72.31
75051;BME280;63628;47.656;11.310;2023-10-08T08:40:18;95699.47;;;17.58;71.15
75051;BME280;63628;47.656;11.310;2023-10-08T08:42:46;95703.53;;;17.38;67.16
75051;BME280;63628;47.656;11.310;2023-10-08T08:45:22;95703.06;;;16.76;68.46
75051;BME280;63628;47.656;11.310;2023-10-08T08:47:51;95695.50;;;17.38;70.69
75051;BME280;63628;47.656;11.310;2023-10-08T08:50:19;95694.00;;;18.44;68.46
75051;BME280;63628;47.656;11.310;2023-10-08T08:52:49;95704.28;;;19.09;65.91
75051;BME280;63628;47.656;11.310;2023-10-08T08:55:16;95702.28;;;19.52;63.98
75051;BME280;63628;47.656;11.310;2023-10-08T08:57:45;95703.16;;;20.29;65.41
75051;BME280;63628;47.656;11.310;2023-10-08T09:00:15;95700.13;;;21.45;63.66
75051;BME280;63628;47.656;11.310;2023-10-08T09:02:46;95701.09;;;21.70;61.48
75051;BME280;63628;47.656;11.310;2023-10-08T09:05:15;95701.88;;;21.26;62.85
75051;BME280;63628;47.656;11.310;2023-10-08T09:07:55;95706.56;;;20.95;60.96
75051;BME280;63628;47.656;11.310;2023-10-08T09:10:23;95707.41;;;20.85;63.13
75051;BME280;63628;47.656;11.310;2023-10-08T09:12:59;95713.66;;;20.50;63.29
75051;BME280;63628;47.656;11.310;2023-10-08T09:15:26;95707.72;;;20.08;66.27
75051;BME280;63628;47.656;11.310;2023-10-08T09:17:53;95716.59;;;20.39;63.65
75051;BME280;63628;47.656;11.310;2023-10-08T09:20:22;95716.88;;;20.07;63.82
75051;BME280;63628;47.656;11.310;2023-10-08T09:23:05;95720.22;;;19.36;65.97
75051;BME280;63628;47.656;11.310;2023-10-08T09:25:34;95723.38;;;19.18;65.45
75051;BME280;63628;47.656;11.310;2023-10-08T09:28:01;95722.91;;;18.79;67.10
75051;BME280;63628;47.656;11.310;2023-10-08T09:30:29;95719.97;;;18.80;66.39
75051;BME280;63628;47.656;11.310;2023-10-08T09:32:57;95722.19;;;18.88;67.27
75051;BME280;63628;47.656;11.310;2023-10-08T09:35:24;95723.03;;;18.94;65.58
75051;BME280;63628;47.656;11.310;2023-10-08T09:37:53;95727.19;;;18.75;65.36
75051;BME280;63628;47.656;11.310;2023-10-08T09:40:22;95726.28;;;18.59;59.96
75051;BME280;63628;47.656;11.310;2023-10-08T09:42:49;95728.34;;;18.47;60.66
75051;BME280;63628;47.656;11.310;2023-10-08T09:45:17;95731.06;;;17.83;66.34
75051;BME280;63628;47.656;11.310;2023-10-08T09:47:50;95738.00;;;17.57;67.71
75051;BME280;63628;47.656;11.310;2023-10-08T09:50:21;95733.97;;;17.32;68.68
75051;BME280;63628;47.656;11.310;2023-10-08T09:53:00;95738.53;;;17.32;69.60
75051;BME280;63628;47.656;11.310;2023-10-08T09:55:29;95737.72;;;17.31;70.66
75051;BME280;63628;47.656;11.310;2023-10-08T09:57:56;95740.44;;;17.36;71.25
75051;BME280;63628;47.656;11.310;2023-10-08T10:00:25;95734.66;;;17.44;70.66
75051;BME280;63628;47.656;11.310;2023-10-08T10:02:59;95730.09;;;18.26;73.18
75051;BME280;63628;47.656;11.310;2023-10-08T10:05:30;95737.94;;;18.05;69.24
75051;BME280;63628;47.656;11.310;2023-10-08T10:07:58;95731.53;;;18.44;69.87
75051;BME280;63628;47.656;11.310;2023-10-08T10:10:25;95731.69;;;18.27;67.88
75051;BME280;63628;47.656;11.310;2023-10-08T10:12:57;95729.91;;;18.05;69.25
75051;BME280;63628;47.656;11.310;2023-10-08T10:15:25;95735.34;;;17.84;69.26
75051;BME280;63628;47.656;11.310;2023-10-08T10:17:58;95729.34;;;18.35;68.42
75051;BME280;63628;47.656;11.310;2023-10-08T10:20:34;95725.41;;;18.90;63.94
75051;BME280;63628;47.656;11.310;2023-10-08T10:23:35;95727.09;;;17.90;68.45
75051;BME280;63628;47.656;11.310;2023-10-08T10:26:22;95730.09;;;18.63;66.25
75051;BME280;63628;47.656;11.310;2023-10-08T10:29:22;95728.13;;;18.53;67.87
75051;BME280;63628;47.656;11.310;2023-10-08T10:31:53;95741.09;;;17.97;67.66
75051;BME280;63628;47.656;11.310;2023-10-08T10:34:22;95742.31;;;18.54;68.67
75051;BME280;63628;47.656;11.310;2023-10-08T10:36:51;95733.81;;;18.25;67.29
75051;BME280;63628;47.656;11.310;2023-10-08T10:39:24;95733.00;;;17.65;70.29
75051;BME280;63628;47.656;11.310;2023-10-08T10:41:58;95722.41;;;17.76;70.15
75051;BME280;63628;47.656;11.310;2023-10-08T10:44:30;95721.38;;;17.55;72.22
75051;BME280;63628;47.656;11.310;2023-10-08T10:46:59;95726.41;;;17.51;72.85
75051;BME280;63628;47.656;11.310;2023-10-08T10:49:46;95720.25;;;17.51;72.20
75051;BME280;63628;47.656;11.310;2023-10-08T10:52:21;95716.28;;;18.12;72.41
75051;BME280;63628;47.656;11.310;2023-10-08T10:55:08;95734.06;;;17.91;71.91
75051;BME280;63628;47.656;11.310;2023-10-08T10:57:41;95730.81;;;18.58;68.36
75051;BME280;63628;47.656;11.310;2023-10-08T11:00:11;95734.97;;;18.34;70.38
75051;BME280;63628;47.656;11.310;2023-10-08T11:02:57;95744.81;;;18.23;68.70
75051;BME280;63628;47.656;11.310;2023-10-08T11:05:29;95748.94;;;18.09;69.73
75051;BME280;63628;47.656;11.310;2023-10-08T11:07:59;95746.59;;;18.50;71.60
75051;BME280;63628;47.656;11.310;2023-10-08T11:10:35;95753.06;;;18.96;70.62
75051;BME280;63628;47.656;11.310;2023-10-08T11:13:05;95751.00;;;18.29;68.92
75051;BME280;63628;47.656;11.310;2023-10-08T11:15:43;95749.72;;;18.74;71.45
75051;BME280;63628;47.656;11.310;2023-10-08T11:18:16;95754.00;;;18.05;73.01
75051;BME280;63628;47.656;11.310;2023-10-08T11:20:45;95749.84;;;17.88;71.20
75051;BME280;63628;47.656;11.310;2023-10-08T11:23:31;95750.47;;;17.68;72.41
75051;BME280;63628;47.656;11.310;2023-10-08T11:26:00;95754.09;;;17.84;73.34
75051;BME280;63628;47.656;11.310;2023-10-08T11:28:31;95757.31;;;17.86;70.94
75051;BME280;63628;47.656;11.310;2023-10-08T11:31:03;95756.13;;;18.30;72.24
75051;BME280;63628;47.656;11.310;2023-10-08T11:33:35;95756.50;;;18.49;68.77
75051;BME280;63628;47.656;11.310;2023-10-08T11:36:04;95767.16;;;18.07;69.81
75051;BME280;63628;47.656;11.310;2023-10-08T11:38:45;95759.34;;;18.00;72.60
75051;BME280;63628;47.656;11.310;2023-10-08T11:41:17;95759.47;;;18.16;70.53
75051;BME280;63628;47.656;11.310;2023-10-08T11:43:48;95759.38;;;18.05;74.02
75051;BME280;63628;47.656;11.310;2023-10-08T11:46:23;95757.66;;;18.21;72.22
75051;BME280;63628;47.656;11.310;2023-10-08T11:48:52;95755.09;;;17.78;71.83
75051;BME280;63628;47.656;11.310;2023-10-08T11:51:19;95751.38;;;17.79;71.36
75051;BME280;63628;47.656;11.310;2023-10-08T11:53:52;95751.06;;;17.75;72.12
75051;BME280;63628;47.656;11.310;2023-10-08T11:56:20;95752.28;;;17.89;74.28
75051;BME280;63628;47.656;11.310;2023-10-08T11:58:49;95756.00;;;18.20;73.69
75051;BME280;63628;47.656;11.310;2023-10-08T12:01:18;95748.03;;;17.93;71.41
75051;BME280;63628;47.656;11.310;2023-10-08T12:03:46;95744.88;;;18.01;73.02
75051;BME280;63628;47.656;11.310;2023-10-08T12:06:13;95745.81;;;17.85;72.16
75051;BME280;63628;47.656;11.310;2023-10-08T12:08:46;95752.72;;;17.81;72.00
75051;BME280;63628;47.656;11.310;2023-10-08T12:11:14;95747.03;;;17.72;72.77
75051;BME280;63628;47.656;11.310;2023-10-08T12:13:41;95750.00;;;17.76;72.21
75051;BME280;63628;47.656;11.310;2023-10-08T12:16:12;95749.16;;;18.02;72.46
75051;BME280;63628;47.656;11.310;2023-10-08T12:18:47;95752.06;;;17.96;71.08
75051;BME280;63628;47.656;11.310;2023-10-08T12:21:15;95749.44;;;17.74;72.43
75051;BME280;63628;47.656;11.310;2023-10-08T12:23:43;95746.56;;;17.81;71.48
75051;BME280;63628;47.656;11.310;2023-10-08T12:26:12;95753.19;;;17.73;73.25
75051;BME280;63628;47.656;11.310;2023-10-08T12:28:42;95748.13;;;17.77;72.33
75051;BME280;63628;47.656;11.310;2023-10-08T12:31:14;95742.22;;;17.74;73.21
75051;BME280;63628;47.656;11.310;2023-10-08T12:33:42;95745.59;;;17.92;74.10
75051;BME280;63628;47.656;11.310;2023-10-08T12:36:14;95737.97;;;17.79;72.06
75051;BME280;63628;47.656;11.310;2023-10-08T12:38:44;95737.22;;;17.83;72.04
75051;BME280;63628;47.656;11.310;2023-10-08T12:41:11;95726.53;;;17.88;72.15
75051;BME280;63628;47.656;11.310;2023-10-08T12:43:42;95716.25;;;17.75;72.37
75051;BME280;63628;47.656;11.310;2023-10-08T12:46:12;95722.13;;;17.72;72.71
75051;BME280;63628;47.656;11.310;2023-10-08T12:48:45;95716.09;;;17.87;74.06
75051;BME280;63628;47.656;11.310;2023-10-08T12:51:16;95717.78;;;17.98;73.94
75051;BME280;63628;47.656;11.310;2023-10-08T12:53:44;95718.16;;;17.80;72.33
75051;BME280;63628;47.656;11.310;2023-10-08T12:56:21;95714.31;;;17.97;74.68
75051;BME280;63628;47.656;11.310;2023-10-08T12:58:58;95710.66;;;17.77;72.52
75051;BME280;63628;47.656;11.310;2023-10-08T13:01:25;95712.59;;;17.86;71.68
75051;BME280;63628;47.656;11.310;2023-10-08T13:03:55;95711.38;;;17.99;71.45
75051;BME280;63628;47.656;11.310;2023-10-08T13:06:29;95710.41;;;17.78;72.66
75051;BME280;63628;47.656;11.310;2023-10-08T13:08:56;95713.56;;;17.75;73.01
75051;BME280;63628;47.656;11.310;2023-10-08T13:11:25;95710.41;;;17.78;72.31
75051;BME280;63628;47.656;11.310;2023-10-08T13:13:53;95719.88;;;17.91;72.47
75051;BME280;63628;47.656;11.310;2023-10-08T13:16:25;95721.66;;;17.80;72.79